Time;durP1;ratioP1;P1;durP2;ratioP2;P2;SDS_P1;SDS_P2;PMS_P1;PMS_P2;Temp;Humidity;BMP_temperature;BMP_pressure;BME280_temperature;BME280_humidity;BME280_pressure;Samples;Min_cycle;Max_cycle;Signal;HPM_P1;HPM_P2
2021/09/29 00:00:51;;;;;;;12.98;8.88;;;;;;;16.13;76.08;96430.97;5086323;28;20209;-73
2021/09/29 00:03:18;;;;;;;14.13;8.85;;;;;;;16.10;76.46;96428.13;5086884;28;20059;-74
2021/09/29 00:05:46;;;;;;;13.00;9.40;;;;;;;16.09;76.89;96438.31;5086359;28;20051;-73
2021/09/29 00:08:12;;;;;;;12.02;9.27;;;;;;;16.09;76.48;96427.34;5086455;28;20055;-73
2021/09/29 00:10:41;;;;;;;14.23;9.52;;;;;;;16.09;76.82;96427.34;5086867;28;20051;-73
2021/09/29 00:13:08;;;;;;;13.73;9.55;;;;;;;16.11;76.83;96418.72;5086437;28;20059;-73
2021/09/29 00:15:35;;;;;;;13.13;8.80;;;;;;;16.07;77.05;96413.13;5090836;28;20056;-73
2021/09/29 00:18:01;;;;;;;15.80;10.13;;;;;;;16.10;77.33;96422.63;5090758;28;20706;-73
2021/09/29 00:20:28;;;;;;;16.65;9.65;;;;;;;16.05;77.29;96415.44;5107537;28;20040;-73
2021/09/29 00:22:56;;;;;;;10.60;8.73;;;;;;;15.98;77.62;96422.72;5110783;28;20081;-73
2021/09/29 00:25:22;;;;;;;13.57;9.70;;;;;;;15.91;78.54;96426.81;5110892;28;20043;-72
2021/09/29 00:27:49;;;;;;;14.32;10.52;;;;;;;15.84;79.11;96426.66;5110584;28;20090;-73
2021/09/29 00:30:16;;;;;;;12.27;9.85;;;;;;;15.82;79.15;96428.16;5110825;28;20059;-73
2021/09/29 00:32:43;;;;;;;15.82;10.55;;;;;;;15.79;79.75;96428.84;5095377;28;20047;-73
2021/09/29 00:35:12;;;;;;;19.50;11.10;;;;;;;15.73;80.45;96428.28;5090339;28;20056;-73
2021/09/29 00:37:39;;;;;;;14.13;10.07;;;;;;;15.64;81.13;96425.69;5090187;28;20056;-73
2021/09/29 00:40:09;;;;;;;14.57;10.75;;;;;;;15.56;81.47;96423.88;5089444;28;20051;-73
2021/09/29 00:42:36;;;;;;;14.15;10.70;;;;;;;15.50;81.88;96421.69;5090609;28;20075;-72
2021/09/29 00:45:03;;;;;;;16.85;11.50;;;;;;;15.45;81.86;96421.94;5090283;28;20051;-72
2021/09/29 00:47:32;;;;;;;26.90;12.93;;;;;;;15.43;82.20;96416.81;5091163;28;20055;-72
2021/09/29 00:49:58;;;;;;;17.17;12.27;;;;;;;15.38;82.17;96412.38;5102320;28;20056;-73
2021/09/29 00:52:25;;;;;;;15.93;11.88;;;;;;;15.37;82.25;96413.50;5110515;28;20070;-73
2021/09/29 00:54:51;;;;;;;17.23;12.27;;;;;;;15.45;82.11;96419.19;5110103;28;20060;-73
2021/09/29 00:57:19;;;;;;;14.10;11.10;;;;;;;15.52;81.46;96419.44;5110251;28;20043;-73
2021/09/29 00:59:45;;;;;;;15.57;11.25;;;;;;;15.48;81.19;96418.53;5110217;28;20063;-73
2021/09/29 01:02:12;;;;;;;15.98;11.25;;;;;;;15.40;80.88;96414.78;5099931;28;20063;-73
2021/09/29 01:04:39;;;;;;;17.35;11.95;;;;;;;15.38;81.20;96412.38;5090025;28;20055;-73
2021/09/29 01:07:11;;;;;;;16.75;11.50;;;;;;;15.43;81.17;96411.31;5089064;28;20414;-73
2021/09/29 01:09:44;;;;;;;16.42;11.27;;;;;;;15.51;80.83;96406.84;5090039;28;20048;-73
2021/09/29 01:12:20;;;;;;;16.88;10.10;;;;;;;15.55;80.99;96394.00;5089052;28;20052;-73
2021/09/29 01:14:54;;;;;;;13.80;11.18;;;;;;;15.60;80.71;96396.50;5090200;28;20056;-73
2021/09/29 01:17:21;;;;;;;13.55;10.65;;;;;;;15.62;79.94;96397.78;5088487;28;20081;-73
2021/09/29 01:20:08;;;;;;;16.40;11.23;;;;;;;15.63;79.87;96393.91;5100718;28;20059;-73
2021/09/29 01:22:52;;;;;;;14.57;10.73;;;;;;;15.63;80.06;96399.38;5109886;28;20055;-73
2021/09/29 01:25:28;;;;;;;19.08;11.35;;;;;;;15.52;79.80;96400.22;5107821;28;20055;-72
2021/09/29 01:27:58;;;;;;;15.93;10.80;;;;;;;15.46;80.09;96401.63;5110455;28;20050;-72
2021/09/29 01:30:25;;;;;;;14.88;11.25;;;;;;;15.41;80.18;96399.91;5108966;28;20048;-74
2021/09/29 01:32:53;;;;;;;15.18;10.68;;;;;;;15.35;80.03;96396.63;5094377;28;20044;-73
2021/09/29 01:35:20;;;;;;;15.07;11.85;;;;;;;15.36;80.20;96395.47;5088835;28;20056;-72
2021/09/29 01:37:47;;;;;;;14.85;10.98;;;;;;;15.39;80.65;96394.75;5089472;28;20052;-72
2021/09/29 01:40:14;;;;;;;15.60;10.73;;;;;;;15.43;80.58;96399.56;5088590;28;20054;-72
2021/09/29 01:42:40;;;;;;;15.45;10.65;;;;;;;15.52;80.57;96402.97;5089124;28;20048;-74
2021/09/29 01:45:09;;;;;;;14.70;10.88;;;;;;;15.57;80.14;96399.97;5088844;28;20055;-72
2021/09/29 01:47:35;;;;;;;16.00;10.93;;;;;;;15.54;79.93;96400.66;5085822;28;20055;-72
2021/09/29 01:50:04;;;;;;;15.13;10.88;;;;;;;15.56;79.62;96409.34;5109403;28;20049;-72
2021/09/29 01:52:36;;;;;;;14.75;10.80;;;;;;;15.58;79.49;96412.53;5107296;28;20047;-72
2021/09/29 01:55:04;;;;;;;13.43;10.27;;;;;;;15.55;79.61;96413.22;5090859;28;20047;-73
2021/09/29 01:57:32;;;;;;;15.68;10.35;;;;;;;15.53;79.63;96413.56;5109054;28;20050;-72
2021/09/29 01:59:58;;;;;;;14.85;11.27;;;;;;;15.52;79.91;96408.44;5109502;28;20052;-72
2021/09/29 02:02:27;;;;;;;13.13;10.75;;;;;;;15.53;79.67;96410.84;5096697;28;20048;-72
2021/09/29 02:04:53;;;;;;;15.27;11.10;;;;;;;15.48;79.88;96404.78;5088748;28;20055;-72
2021/09/29 02:07:20;;;;;;;15.80;11.43;;;;;;;15.46;80.26;96407.09;5088588;28;20402;-73
2021/09/29 02:09:47;;;;;;;14.25;11.20;;;;;;;15.42;80.49;96414.44;5088553;28;20048;-73
2021/09/29 02:12:14;;;;;;;15.02;11.07;;;;;;;15.37;80.73;96413.50;5088643;28;20482;-73
2021/09/29 02:14:40;;;;;;;16.38;11.18;;;;;;;15.34;81.02;96421.63;5089080;28;20059;-72
2021/09/29 02:17:07;;;;;;;16.38;11.55;;;;;;;15.33;81.35;96423.56;5088860;28;20052;-72
2021/09/29 02:19:35;;;;;;;14.68;11.30;;;;;;;15.36;81.03;96428.38;5088153;28;20071;-73
2021/09/29 02:22:02;;;;;;;15.25;11.20;;;;;;;15.37;80.95;96434.66;5095250;28;20519;-71
2021/09/29 02:24:28;;;;;;;22.23;12.02;;;;;;;15.36;81.15;96428.38;5108265;28;20052;-73
2021/09/29 02:26:55;;;;;;;16.55;12.15;;;;;;;15.31;81.23;96431.38;5108862;28;20058;-73
2021/09/29 02:29:22;;;;;;;16.02;11.15;;;;;;;15.40;81.02;96443.00;5108505;28;20048;-72
2021/09/29 02:31:48;;;;;;;15.60;11.10;;;;;;;15.45;80.58;96441.16;5108219;28;20078;-73
2021/09/29 02:34:15;;;;;;;16.40;11.10;;;;;;;15.46;80.50;96440.03;5108838;28;20055;-72
2021/09/29 02:36:43;;;;;;;16.38;11.18;;;;;;;15.45;80.68;96447.44;5108374;28;20054;-73
2021/09/29 02:39:09;;;;;;;15.05;11.48;;;;;;;15.35;80.79;96453.44;5108772;28;20047;-73
2021/09/29 02:41:37;;;;;;;15.93;11.25;;;;;;;15.32;81.35;96460.41;5108368;28;20051;-73
2021/09/29 02:44:08;;;;;;;20.20;13.30;;;;;;;15.29;81.68;96466.56;5108232;28;20047;-72
2021/09/29 02:46:35;;;;;;;19.75;13.10;;;;;;;15.25;81.69;96464.88;5108406;28;20769;-74
2021/09/29 02:49:01;;;;;;;16.35;12.45;;;;;;;15.18;81.99;96465.44;5108284;28;20086;-72
2021/09/29 02:51:27;;;;;;;17.58;12.55;;;;;;;15.15;82.74;96466.16;5108131;28;20050;-73
2021/09/29 02:53:57;;;;;;;19.30;13.40;;;;;;;15.13;83.57;96468.41;5110561;27;20047;-73
2021/09/29 02:56:25;;;;;;;20.23;14.30;;;;;;;15.08;83.42;96471.38;5109938;27;20051;-72
2021/09/29 02:58:51;;;;;;;22.52;14.98;;;;;;;15.03;83.87;96479.84;5107689;28;20056;-73
2021/09/29 03:01:18;;;;;;;23.80;14.52;;;;;;;15.02;84.20;96478.25;5108484;28;20054;-75
2021/09/29 03:03:44;;;;;;;27.23;16.45;;;;;;;14.91;85.25;96479.84;5107872;28;20047;-72
2021/09/29 03:06:11;;;;;;;23.10;14.93;;;;;;;14.80;85.82;96482.25;5107976;28;20046;-73
2021/09/29 03:08:38;;;;;;;23.88;15.35;;;;;;;14.68;86.24;96485.78;5107929;28;20595;-73
2021/09/29 03:11:05;;;;;;;23.80;15.90;;;;;;;14.66;86.67;96487.25;5107532;28;20063;-73
2021/09/29 03:13:32;;;;;;;27.15;16.15;;;;;;;14.62;87.01;96487.16;5108194;28;20042;-72
2021/09/29 03:15:58;;;;;;;24.33;16.73;;;;;;;14.60;87.19;96490.22;5107796;28;20053;-73
2021/09/29 03:18:25;;;;;;;23.05;16.08;;;;;;;14.60;87.69;96492.97;5107911;28;20048;-72
2021/09/29 03:20:51;;;;;;;24.45;17.50;;;;;;;14.59;87.74;96499.59;5107349;28;20051;-73
2021/09/29 03:23:18;;;;;;;23.20;16.15;;;;;;;14.57;87.47;96501.09;5107764;28;20066;-73
2021/09/29 03:25:44;;;;;;;26.67;17.25;;;;;;;14.52;87.68;96495.81;5111958;27;20050;-73
2021/09/29 03:28:12;;;;;;;25.90;17.08;;;;;;;14.47;88.32;96490.53;5107686;28;20047;-73
2021/09/29 03:30:39;;;;;;;26.65;17.67;;;;;;;14.40;88.34;96501.22;5107656;28;20048;-73
2021/09/29 03:33:06;;;;;;;25.88;18.20;;;;;;;14.40;88.69;96495.75;5106790;28;20070;-73
2021/09/29 03:35:34;;;;;;;27.00;17.55;;;;;;;14.41;88.73;96508.31;5107249;28;20044;-73
2021/09/29 03:38:00;;;;;;;26.20;17.58;;;;;;;14.31;88.68;96502.13;5107574;28;20039;-73
2021/09/29 03:40:27;;;;;;;25.95;18.10;;;;;;;14.25;89.18;96506.22;5107409;28;20562;-73
2021/09/29 03:42:54;;;;;;;27.15;18.20;;;;;;;14.18;89.39;96503.22;5106819;28;20052;-73
2021/09/29 03:45:21;;;;;;;28.05;19.02;;;;;;;14.11;89.86;96497.50;5107185;28;20511;-73
2021/09/29 03:47:48;;;;;;;32.83;19.70;;;;;;;14.10;89.94;96501.38;5106141;28;20050;-73
2021/09/29 03:50:15;;;;;;;29.08;20.08;;;;;;;14.10;90.51;96498.66;5106351;28;20044;-73
2021/09/29 03:52:41;;;;;;;33.67;21.20;;;;;;;14.09;91.03;96508.81;5106363;28;20055;-76
2021/09/29 03:55:09;;;;;;;39.38;23.10;;;;;;;14.10;90.75;96510.41;5106060;28;20045;-77
2021/09/29 03:57:37;;;;;;;40.08;22.33;;;;;;;14.05;90.92;96499.66;5106400;28;20052;-74
2021/09/29 04:00:05;;;;;;;43.78;24.20;;;;;;;14.03;91.28;96493.69;5106316;28;20422;-75
2021/09/29 04:02:33;;;;;;;41.60;24.58;;;;;;;14.03;91.44;96493.69;5106710;28;20414;-75
2021/09/29 04:05:00;;;;;;;45.78;26.25;;;;;;;14.07;91.36;96488.34;5106715;28;20074;-77
2021/09/29 04:07:26;;;;;;;53.22;26.85;;;;;;;14.07;91.48;96489.16;5106592;28;20537;-74
2021/09/29 04:09:53;;;;;;;49.33;27.67;;;;;;;14.08;91.75;96484.47;5106416;28;20044;-77
2021/09/29 04:12:21;;;;;;;61.33;29.20;;;;;;;14.04;91.74;96486.28;5106915;28;20047;-74
2021/09/29 04:14:47;;;;;;;53.20;28.10;;;;;;;14.02;91.88;96494.03;5106486;28;20044;-74
2021/09/29 04:17:14;;;;;;;48.92;27.80;;;;;;;13.94;92.09;96489.44;5107029;28;20413;-75
2021/09/29 04:19:42;;;;;;;49.92;29.13;;;;;;;13.91;92.49;96506.53;5106686;28;20043;-75
2021/09/29 04:22:10;;;;;;;51.60;28.77;;;;;;;13.83;92.82;96500.00;5106333;28;20427;-74
2021/09/29 04:24:37;;;;;;;54.53;29.58;;;;;;;13.79;93.11;96499.88;5106060;28;20133;-74
2021/09/29 04:27:04;;;;;;;54.70;29.52;;;;;;;13.79;93.60;96508.09;5106070;28;20044;-74
2021/09/29 04:29:31;;;;;;;53.92;30.75;;;;;;;13.76;93.51;96500.53;5107131;28;20070;-75
2021/09/29 04:31:57;;;;;;;62.75;30.23;;;;;;;13.80;94.06;96504.22;5105869;28;20051;-75
2021/09/29 04:34:24;;;;;;;59.92;30.67;;;;;;;13.80;93.96;96501.47;5106307;28;20047;-75
2021/09/29 04:36:52;;;;;;;61.17;31.33;;;;;;;13.86;94.49;96510.28;5105574;28;20055;-75
2021/09/29 04:39:18;;;;;;;59.00;32.15;;;;;;;13.86;94.14;96498.53;5106380;28;20052;-75
2021/09/29 04:41:45;;;;;;;57.72;30.52;;;;;;;13.87;94.18;96500.13;5106060;28;20048;-75
2021/09/29 04:44:11;;;;;;;58.55;32.20;;;;;;;13.90;94.23;96499.47;5106127;28;20054;-75
2021/09/29 04:46:38;;;;;;;58.03;30.70;;;;;;;13.90;93.81;96497.53;5106526;28;20051;-75
2021/09/29 04:49:04;;;;;;;57.70;30.52;;;;;;;13.90;93.87;96504.94;5106041;28;20054;-75
2021/09/29 04:51:31;;;;;;;59.13;30.77;;;;;;;13.92;93.86;96502.66;5106102;28;20052;-75
2021/09/29 04:53:59;;;;;;;56.20;29.60;;;;;;;13.90;94.12;96500.28;5105242;28;20044;-75
2021/09/29 04:56:25;;;;;;;56.60;29.85;;;;;;;13.97;94.25;96510.69;5105947;28;20063;-75
2021/09/29 04:58:52;;;;;;;61.13;31.65;;;;;;;13.98;94.08;96517.75;5105584;28;20051;-75
2021/09/29 05:01:20;;;;;;;53.17;29.70;;;;;;;13.92;93.25;96516.34;5107943;28;20066;-75
2021/09/29 05:03:47;;;;;;;52.05;28.50;;;;;;;13.93;93.45;96526.97;5110217;28;20051;-75
2021/09/29 05:06:13;;;;;;;53.08;29.58;;;;;;;13.95;93.55;96534.84;5109460;28;20054;-75
2021/09/29 05:08:40;;;;;;;58.28;29.80;;;;;;;13.92;93.68;96536.31;5109215;28;20051;-75
2021/09/29 05:11:15;;;;;;;52.88;28.50;;;;;;;13.91;93.71;96539.41;5108908;28;20040;-74
2021/09/29 05:13:42;;;;;;;58.63;29.42;;;;;;;13.90;93.76;96548.75;5109709;28;20047;-75
2021/09/29 05:16:08;;;;;;;53.97;28.60;;;;;;;13.92;93.92;96551.94;5108540;28;20741;-76
2021/09/29 05:18:35;;;;;;;53.05;28.05;;;;;;;13.94;93.95;96546.91;5109709;28;20051;-75
2021/09/29 05:21:02;;;;;;;53.60;28.65;;;;;;;13.95;93.92;96551.28;5108506;28;20047;-75
2021/09/29 05:23:28;;;;;;;51.95;27.65;;;;;;;13.99;93.79;96552.19;5110191;28;20055;-75
2021/09/29 05:25:56;;;;;;;54.47;28.25;;;;;;;14.02;93.93;96557.00;5114797;27;20101;-75
2021/09/29 05:28:27;;;;;;;52.05;28.60;;;;;;;14.00;93.07;96564.78;5109968;28;20410;-77
2021/09/29 05:30:54;;;;;;;50.30;27.52;;;;;;;14.02;93.07;96563.28;5109500;28;20039;-77
2021/09/29 05:33:20;;;;;;;50.80;27.40;;;;;;;13.99;93.27;96569.44;5109218;28;20051;-78
2021/09/29 05:35:47;;;;;;;48.78;28.10;;;;;;;14.03;93.46;96567.63;5109681;28;20050;-77
2021/09/29 05:38:13;;;;;;;55.13;28.88;;;;;;;14.05;93.59;96575.53;5108977;28;20074;-78
2021/09/29 05:40:40;;;;;;;50.28;28.58;;;;;;;14.04;93.33;96572.00;5109759;28;20506;-78
2021/09/29 05:43:07;;;;;;;51.58;26.98;;;;;;;14.03;93.10;96575.03;5108265;28;20050;-76
2021/09/29 05:45:35;;;;;;;46.28;26.60;;;;;;;14.05;93.34;96581.00;5109810;28;20048;-77
2021/09/29 05:48:02;;;;;;;49.13;28.00;;;;;;;14.04;93.20;96576.63;5108507;28;20043;-78
2021/09/29 05:50:28;;;;;;;46.67;26.25;;;;;;;14.04;92.91;96580.19;5109069;28;20047;-79
2021/09/29 05:52:55;;;;;;;46.65;26.10;;;;;;;13.99;92.97;96580.41;5105960;28;20043;-77
2021/09/29 05:55:22;;;;;;;47.90;26.35;;;;;;;14.04;93.55;96582.94;5109113;28;20061;-77
2021/09/29 05:57:48;;;;;;;48.88;26.13;;;;;;;14.08;93.23;96583.06;5109052;28;20066;-77
2021/09/29 06:00:16;;;;;;;45.33;24.58;;;;;;;14.06;92.98;96591.59;5108236;28;20200;-77
2021/09/29 06:02:43;;;;;;;43.67;24.08;;;;;;;14.00;92.67;96583.94;5109029;28;20505;-78
2021/09/29 06:05:10;;;;;;;40.63;23.63;;;;;;;13.99;93.05;96593.25;5108197;28;20048;-78
2021/09/29 06:07:37;;;;;;;41.40;23.30;;;;;;;13.99;93.05;96587.78;5109521;28;20066;-77
2021/09/29 06:10:05;;;;;;;39.20;24.02;;;;;;;13.98;93.28;96594.41;5108210;28;20059;-77
2021/09/29 06:12:31;;;;;;;41.40;22.60;;;;;;;13.98;93.37;96594.41;5108977;28;20047;-78
2021/09/29 06:14:58;;;;;;;39.78;22.40;;;;;;;14.02;93.09;96595.34;5108298;28;20532;-77
2021/09/29 06:17:26;;;;;;;40.92;22.50;;;;;;;14.02;93.18;96598.88;5108601;28;20490;-77
2021/09/29 06:19:55;;;;;;;37.60;21.92;;;;;;;14.01;92.98;96604.69;5108801;28;20071;-77
2021/09/29 06:22:23;;;;;;;36.50;20.60;;;;;;;13.96;93.01;96604.91;5108341;28;20058;-77
2021/09/29 06:24:50;;;;;;;36.90;21.65;;;;;;;13.97;93.15;96603.75;5108715;28;20584;-77
2021/09/29 06:27:16;;;;;;;33.58;20.30;;;;;;;14.04;93.08;96606.75;5107767;28;20050;-77
2021/09/29 06:29:43;;;;;;;33.47;20.63;;;;;;;14.13;92.86;96612.97;5109192;28;20043;-77
2021/09/29 06:32:11;;;;;;;35.47;20.27;;;;;;;14.21;92.09;96609.38;5107427;28;20050;-77
2021/09/29 06:34:37;;;;;;;33.42;20.75;;;;;;;14.31;91.63;96613.66;5108963;28;20054;-77
2021/09/29 06:37:06;;;;;;;34.63;21.10;;;;;;;14.39;91.35;96620.97;5107541;28;20074;-77
2021/09/29 06:39:33;;;;;;;36.90;21.23;;;;;;;14.46;90.62;96614.94;5109061;28;20050;-78
2021/09/29 06:42:00;;;;;;;34.63;20.10;;;;;;;14.52;90.14;96616.41;5108041;28;20047;-78
2021/09/29 06:44:28;;;;;;;32.78;20.08;;;;;;;14.59;89.91;96613.91;5108020;28;20035;-79
2021/09/29 06:46:55;;;;;;;32.42;20.17;;;;;;;14.68;90.12;96622.84;5108168;28;20051;-77
2021/09/29 06:49:22;;;;;;;30.17;17.35;;;;;;;14.70;89.09;96626.03;5107665;28;20051;-78
2021/09/29 06:51:48;;;;;;;25.73;15.15;;;;;;;14.68;87.31;96622.84;5108521;28;20050;-76
2021/09/29 06:54:16;;;;;;;21.58;14.32;;;;;;;14.70;87.16;96628.78;5106949;28;20043;-76
2021/09/29 06:56:45;;;;;;;20.83;14.10;;;;;;;14.68;86.20;96633.81;5108316;28;20047;-77
2021/09/29 06:59:11;;;;;;;20.67;14.57;;;;;;;14.71;86.71;96635.84;5107881;28;20121;-77
2021/09/29 07:01:38;;;;;;;22.40;14.70;;;;;;;14.79;87.46;96634.97;5108710;28;20051;-78
2021/09/29 07:04:04;;;;;;;25.25;15.20;;;;;;;14.87;87.90;96634.06;5107163;28;20044;-76
2021/09/29 07:06:31;;;;;;;22.67;14.93;;;;;;;14.89;87.36;96641.97;5108039;28;20046;-76
2021/09/29 07:08:57;;;;;;;27.13;15.95;;;;;;;14.95;87.66;96642.56;5107530;28;20073;-78
2021/09/29 07:11:25;;;;;;;23.27;14.57;;;;;;;14.98;87.43;96633.63;5106865;28;20039;-76
2021/09/29 07:13:51;;;;;;;23.30;13.98;;;;;;;14.93;86.12;96631.13;5108044;28;20040;-75
2021/09/29 07:16:19;;;;;;;22.48;13.48;;;;;;;14.97;86.08;96635.59;5106647;28;20047;-78
2021/09/29 07:18:45;;;;;;;20.98;13.15;;;;;;;14.99;85.84;96629.78;5108333;28;20687;-77
2021/09/29 07:21:12;;;;;;;24.83;14.02;;;;;;;15.06;85.90;96633.56;5104917;28;20494;-76
2021/09/29 07:23:39;;;;;;;20.92;12.98;;;;;;;15.03;85.43;96644.38;5112560;27;20051;-75
2021/09/29 07:26:05;;;;;;;20.55;12.85;;;;;;;15.04;85.85;96646.81;5119422;27;20512;-76
2021/09/29 07:28:33;;;;;;;18.92;12.63;;;;;;;15.10;86.53;96639.16;5107723;28;20043;-76
2021/09/29 07:31:00;;;;;;;22.60;14.00;;;;;;;15.14;86.18;96657.34;5106885;28;20047;-75
2021/09/29 07:33:27;;;;;;;20.23;13.45;;;;;;;15.15;85.74;96655.41;5106694;28;20048;-75
2021/09/29 07:35:55;;;;;;;19.95;12.13;;;;;;;15.14;85.83;96651.06;5107197;28;20039;-76
2021/09/29 07:38:21;;;;;;;15.68;11.15;;;;;;;15.12;85.09;96654.13;5106527;28;21436;-76
2021/09/29 07:40:49;;;;;;;15.85;10.75;;;;;;;15.11;85.15;96663.50;5107220;28;20054;-76
2021/09/29 07:43:16;;;;;;;18.27;11.45;;;;;;;15.11;85.52;96669.00;5106082;28;20468;-77
2021/09/29 07:45:43;;;;;;;20.23;11.52;;;;;;;15.14;85.75;96667.53;5108020;28;20063;-75
2021/09/29 07:48:10;;;;;;;14.30;10.15;;;;;;;15.14;85.34;96670.28;5105999;28;20060;-75
2021/09/29 07:50:36;;;;;;;12.27;8.27;;;;;;;15.07;82.40;96672.75;5107642;28;20058;-76
2021/09/29 07:53:03;;;;;;;12.52;8.60;;;;;;;15.08;83.73;96675.16;5106008;28;20097;-74
2021/09/29 07:55:29;;;;;;;12.20;7.45;;;;;;;15.03;83.52;96677.31;5107312;28;20759;-74
2021/09/29 07:57:56;;;;;;;9.82;7.28;;;;;;;15.04;83.57;96679.72;5107397;28;20051;-75
2021/09/29 08:00:22;;;;;;;15.00;8.75;;;;;;;15.06;83.73;96682.13;5107166;28;20047;-75
2021/09/29 08:02:50;;;;;;;13.20;7.32;;;;;;;15.07;82.45;96684.53;5107400;28;20052;-75
2021/09/29 08:05:19;;;;;;;8.30;5.82;;;;;;;15.01;80.12;96687.81;5107281;28;20391;-75
2021/09/29 08:07:46;;;;;;;9.18;5.95;;;;;;;15.02;80.85;96687.47;5107341;28;20062;-75
2021/09/29 08:10:12;;;;;;;8.18;5.88;;;;;;;15.01;81.17;96690.56;5106153;28;20052;-75
2021/09/29 08:12:39;;;;;;;11.25;6.82;;;;;;;15.02;82.28;96697.66;5121204;28;20043;-75
2021/09/29 08:15:11;;;;;;;8.07;4.90;;;;;;;15.01;81.02;96704.28;5126947;28;20051;-75
2021/09/29 08:17:38;;;;;;;10.55;5.32;;;;;;;15.02;79.50;96703.94;5127705;28;20115;-77
2021/09/29 08:20:08;;;;;;;10.70;4.85;;;;;;;15.07;80.77;96705.66;5126802;28;20043;-76
2021/09/29 08:22:35;;;;;;;6.85;4.32;;;;;;;15.02;78.34;96697.66;5127084;28;20055;-76
2021/09/29 08:25:13;;;;;;;8.00;4.00;;;;;;;15.03;78.05;96715.69;5108384;28;20085;-71
2021/09/29 08:27:48;;;;;;;7.43;3.47;;;;;;;15.07;78.47;96717.44;5105837;28;20885;-75
2021/09/29 08:30:21;;;;;;;7.93;3.30;;;;;;;14.98;75.28;96718.66;5106967;28;20055;-75
2021/09/29 08:32:53;;;;;;;7.13;3.25;;;;;;;15.00;76.72;96716.38;5106382;28;20051;-76
2021/09/29 08:35:28;;;;;;;3.37;2.40;;;;;;;14.96;74.88;96720.94;5108888;28;20051;-74
2021/09/29 08:38:01;;;;;;;5.28;2.47;;;;;;;14.95;76.35;96724.81;5110805;28;20054;-75
2021/09/29 08:40:40;;;;;;;5.07;2.70;;;;;;;14.94;76.11;96718.53;5110168;28;20105;-75
2021/09/29 08:43:20;;;;;;;5.75;2.60;;;;;;;14.96;74.63;96726.44;5110612;28;20075;-74
2021/09/29 08:45:53;;;;;;;6.70;2.92;;;;;;;14.96;73.46;96729.16;5110077;28;20051;-75
2021/09/29 08:48:26;;;;;;;4.40;2.55;;;;;;;14.96;74.99;96732.72;5110353;28;20051;-74
2021/09/29 08:53:52;;;;;;;4.93;2.50;;;;;;;15.09;73.82;96741.78;5109700;28;20062;-75
2021/09/29 09:15:51;;;;;;;5.63;3.03;;;;;;;15.22;73.13;96724.22;5033585;28;20053;-74
2021/09/29 09:18:18;;;;;;;6.82;3.05;;;;;;;15.20;73.02;96729.25;5109814;28;20048;-75
2021/09/29 09:20:51;;;;;;;5.40;2.42;;;;;;;15.25;72.47;96729.03;5109805;28;20078;-75
2021/09/29 09:23:18;;;;;;;5.38;3.00;;;;;;;15.39;71.40;96735.00;5109928;28;20047;-74
2021/09/29 09:25:46;;;;;;;6.70;2.65;;;;;;;15.55;68.81;96731.59;5109344;28;20502;-74
2021/09/29 09:28:25;;;;;;;6.97;3.15;;;;;;;15.62;69.48;96737.34;5109708;28;20486;-74
2021/09/29 09:30:52;;;;;;;4.45;2.53;;;;;;;15.55;68.98;96731.59;5109218;28;20044;-74
2021/09/29 09:33:23;;;;;;;5.00;2.83;;;;;;;15.60;70.56;96742.38;5109293;28;20505;-75
2021/09/29 09:35:50;;;;;;;5.82;2.40;;;;;;;15.57;69.14;96734.81;5108675;28;20055;-75
2021/09/29 09:38:22;;;;;;;4.68;3.00;;;;;;;15.59;69.10;96743.50;5108088;28;20062;-74
2021/09/29 09:40:54;;;;;;;4.22;2.53;;;;;;;15.61;69.17;96741.25;5109395;28;20157;-73
2021/09/29 09:43:23;;;;;;;7.80;2.67;;;;;;;15.60;68.88;96742.38;5107840;28;20047;-74
2021/09/29 09:45:49;;;;;;;5.82;2.83;;;;;;;15.50;69.01;96731.81;5109237;28;20077;-74
2021/09/29 09:48:21;;;;;;;5.18;2.50;;;;;;;15.63;69.86;96738.97;5108054;28;20051;-75
2021/09/29 09:50:47;;;;;;;5.70;2.30;;;;;;;15.67;69.92;96734.41;5109733;28;20120;-74
2021/09/29 09:53:14;;;;;;;4.53;2.30;;;;;;;15.78;67.82;96738.31;5108516;28;20048;-74
2021/09/29 09:55:43;;;;;;;7.90;3.17;;;;;;;15.86;68.59;96729.16;5109634;28;20055;-75
2021/09/29 09:58:09;;;;;;;4.85;2.10;;;;;;;16.03;66.17;96725.41;5108437;28;20047;-74
2021/09/29 10:00:37;;;;;;;4.60;2.05;;;;;;;16.10;64.02;96719.31;5109536;28;20048;-74
2021/09/29 10:03:05;;;;;;;4.15;1.90;;;;;;;16.23;65.31;96715.38;5108768;28;20698;-74
2021/09/29 10:05:32;;;;;;;3.60;1.88;;;;;;;16.42;65.34;96715.59;5108656;28;20463;-74
2021/09/29 10:08:01;;;;;;;6.47;2.10;;;;;;;16.52;64.95;96713.53;5109508;28;20047;-74
2021/09/29 10:10:31;;;;;;;4.57;1.77;;;;;;;16.58;62.92;96712.91;5116505;27;20068;-74
2021/09/29 10:13:27;;;;;;;7.03;1.90;;;;;;;16.67;65.10;96712.78;5129910;27;20130;-77
2021/09/29 10:27:10;;;;;;;3.42;1.75;;;;;;;16.72;62.78;96701.56;5108168;28;20504;-75
2021/09/29 10:29:40;;;;;;;4.45;1.80;;;;;;;16.68;61.68;96706.13;5108738;28;20048;-74
2021/09/29 10:32:15;;;;;;;4.65;1.67;;;;;;;16.64;60.13;96705.22;5107742;28;20585;-73
2021/09/29 10:34:55;;;;;;;5.65;1.63;;;;;;;16.58;59.93;96703.88;5108993;28;20064;-75
2021/09/29 10:37:37;;;;;;;4.28;1.73;;;;;;;16.62;60.68;96702.03;5107824;28;20520;-75
2021/09/29 10:40:30;;;;;;;6.00;2.42;;;;;;;16.69;63.13;96702.22;5108197;28;20046;-74
2021/09/29 10:43:00;;;;;;;3.53;1.83;;;;;;;16.80;63.47;96706.13;5108414;28;20409;-74
2021/09/29 10:45:39;;;;;;;2.97;1.55;;;;;;;16.84;59.80;96709.78;5107585;28;20046;-74
2021/09/29 10:48:20;;;;;;;6.32;1.92;;;;;;;16.95;60.71;96702.63;5108167;28;20055;-74
2021/09/29 11:08:17;;;;;;;4.38;1.15;;;;;;;17.46;57.37;96702.00;5105845;28;20040;-74
2021/09/29 11:27:42;;;;;;;4.32;1.77;;;;;;;17.54;54.24;96686.47;5106993;28;20149;-75
2021/09/29 11:30:20;;;;;;;3.10;1.35;;;;;;;17.63;54.81;96689.84;5117860;27;20071;-75
2021/09/29 11:32:50;;;;;;;5.03;1.20;;;;;;;17.61;52.91;96686.66;5113438;27;20050;-73
2021/09/29 11:35:26;;;;;;;2.75;1.10;;;;;;;17.53;54.26;96688.41;5107505;28;20039;-74
2021/09/29 11:49:35;;;;;;;2.58;0.70;;;;;;;18.18;52.34;96666.00;5043102;28;20084;-74
2021/09/29 12:08:43;;;;;;;2.72;0.95;;;;;;;18.65;50.84;96656.75;5106654;28;20058;-78
2021/09/29 12:11:13;;;;;;;3.03;0.73;;;;;;;18.83;47.82;96655.19;5109339;28;20058;-75
2021/09/29 12:13:47;;;;;;;3.40;0.70;;;;;;;18.91;47.68;96648.66;5111638;28;20048;-74
2021/09/29 12:16:26;;;;;;;5.32;0.98;;;;;;;18.97;51.30;96652.69;5110519;28;20050;-75
2021/09/29 12:18:55;;;;;;;3.80;0.90;;;;;;;19.10;47.17;96650.56;5110767;28;20048;-75
2021/09/29 12:21:40;;;;;;;2.05;0.68;;;;;;;19.01;48.33;96647.25;5110710;28;20051;-75
2021/09/29 12:24:13;;;;;;;2.25;0.88;;;;;;;18.85;48.45;96652.88;5120453;27;20047;-74
2021/09/29 12:26:47;;;;;;;2.22;0.80;;;;;;;18.61;48.78;96653.13;5132125;27;20046;-75
2021/09/29 12:29:22;;;;;;;3.53;0.90;;;;;;;18.53;49.85;96649.41;5130762;27;20058;-74
2021/09/29 12:37:27;;;;;;;6.72;0.95;;;;;;;18.13;49.41;96641.47;5064117;27;21071;-74
2021/09/29 12:39:56;;;;;;;1.80;0.73;;;;;;;18.15;49.69;96636.38;5064731;28;20051;-74
2021/09/29 12:42:29;;;;;;;2.60;0.80;;;;;;;18.33;49.97;96645.84;5063774;28;20048;-74
2021/09/29 12:44:55;;;;;;;;;;;;;;;18.65;50.57;96652.03;5065302;28;20052;-76
2021/09/29 12:47:27;;;;;;;3.63;0.90;;;;;;;18.81;49.00;96649.22;5063708;28;20055;-75
2021/09/29 12:49:55;;;;;;;2.35;0.88;;;;;;;18.92;49.18;96643.91;5064079;28;20667;-74
2021/09/29 12:52:30;;;;;;;2.33;0.55;;;;;;;19.09;48.38;96646.22;5063821;28;20062;-77
2021/09/29 12:54:58;;;;;;;6.82;0.90;;;;;;;19.33;48.07;96647.84;5063322;28;20063;-74
2021/09/29 12:57:27;;;;;;;1.73;0.80;;;;;;;19.22;47.69;96646.84;5063848;28;20448;-74
2021/09/29 12:59:55;;;;;;;2.38;0.77;;;;;;;19.35;49.46;96651.00;5062133;28;20041;-74
2021/09/29 13:02:21;;;;;;;3.50;1.20;;;;;;;19.46;47.22;96635.44;5062415;28;21087;-74
2021/09/29 13:04:48;;;;;;;2.33;0.82;;;;;;;19.51;46.96;96645.38;5063637;28;20051;-74
2021/09/29 13:07:14;;;;;;;2.88;0.80;;;;;;;19.53;46.63;96643.84;5063281;28;20074;-75
2021/09/29 13:09:42;;;;;;;3.45;0.80;;;;;;;19.29;47.74;96650.53;5063653;28;20044;-74